Flight Track Log - Related Links

Times and Time Zones

All times are in EDT time to prevent confusion due to time zone crossing. See the SWA1046 flight status page for this flight to view local times or setup timezone preferences in your user account.

Time Position Orientation Groundspeed Altitude Reporting Facility
EDT Latitude Longitude Course Direction KTS MPH feet Rate Location/Type
Sun 05:52:36 PM 35.4372 -97.6097 15° North 184 212 3,500  Level Fort Worth Center
Sun 05:53:42 PM 35.4644 -97.5383 65° Northeast 248 285 5,900 2,929 Climbing Fort Worth Center
Sun 05:54:43 PM 35.4981 -97.4594 62° Northeast 274 315 9,700 3,129 Climbing Fort Worth Center
Sun 05:56:25 PM 35.5725 -97.2903 62° Northeast 319 367 14,400 2,963 Climbing Kansas City Center
Sun 05:57:27 PM 35.6175 -97.1836 63° Northeast 342 394 17,800 2,806 Climbing Kansas City Center
Sun 05:58:29 PM 35.6653 -97.0706 62° Northeast 362 417 20,200 2,371 Climbing Kansas City Center
Sun 05:59:31 PM 35.7161 -96.9508 62° Northeast 387 445 22,700 1,355 Climbing Kansas City Center
Sun 06:00:33 PM 35.7672 -96.8272 63° Northeast 401 461 23,000 1,452 Climbing Kansas City Center
Sun 06:02:00 PM 35.8121 -96.6514 72° East  Level FlightAware Approximate
Sun 06:02:37 PM 35.8831 -96.5525 72° East 415 478 27,200  Level Kansas City Center
Sun 06:03:39 PM 35.9389 -96.4158 63° Northeast 437 503 29,000 1,645 Climbing Kansas City Center
Sun 06:04:41 PM 35.9958 -96.2786 63° Northeast 447 514 30,600 1,597 Climbing Kansas City Center
Sun 06:05:43 PM 36.0544 -96.1375 63° Northeast 454 522 32,300 1,935 Climbing Kansas City Center
Sun 06:06:45 PM 36.1122 -95.9961 63° Northeast 458 527 34,600 1,306 Climbing Kansas City Center
Sun 06:07:47 PM 36.1794 -95.8306 63° Northeast 454 522 35,000 194 Climbing Kansas City Center
Sun 06:08:49 PM 36.2372 -95.6939 62° Northeast 451 519 35,000 649 Level Kansas City Center
Sun 06:10:00 PM 36.2911 -95.5575 61° Northeast  Level FlightAware Approximate
Sun 06:10:52 PM 36.3664 -95.4339 61° Northeast 445 512 37,000  Level Kansas City Center
Sun 06:11:54 PM 36.4331 -95.2981 59° Northeast 452 520 37,800 774 Climbing Kansas City Center
Sun 06:12:56 PM 36.5006 -95.1581 59° Northeast 467 537 38,600 581 Climbing Kansas City Center
Sun 06:13:58 PM 36.5756 -95.0019 59° Northeast 469 540 39,000 194 Climbing Kansas City Center
Sun 06:15:00 PM 36.6400 -94.8656 59° Northeast 464 534 39,000  Level Kansas City Center
Sun 06:16:02 PM 36.7047 -94.7292 59° Northeast 460 529 39,000  Level Kansas City Center
Sun 06:17:04 PM 36.7692 -94.5936 59° Northeast 457 526 39,000  Level Kansas City Center
Sun 06:19:07 PM 36.9644 -94.3633 43° Northeast 440 506 39,000  Level Kansas City Center
Sun 06:20:09 PM 37.0556 -94.2622 42° Northeast 438 504 39,000  Level Kansas City Center
Sun 06:21:11 PM 37.1461 -94.1606 42° Northeast 436 502 39,000  Level Kansas City Center
Sun 06:22:13 PM 37.2292 -94.0678 42° Northeast 432 497 39,000  Level Kansas City Center
Sun 06:23:15 PM 37.3178 -93.9692 41° Northeast 427 491 39,000  Level Kansas City Center
Sun 06:24:17 PM 37.4231 -93.8500 42° Northeast 424 488 39,000  Level Kansas City Center
Sun 06:25:18 PM 37.5092 -93.7506 42° Northeast 420 483 39,000  Level Kansas City Center
Sun 06:26:20 PM 37.5978 -93.6506 42° Northeast 423 487 39,000  Level Kansas City Center
Sun 06:27:22 PM 37.6856 -93.5500 42° Northeast 424 488 39,000  Level Kansas City Center
Sun 06:28:24 PM 37.7756 -93.4486 42° Northeast 427 491 39,000  Level Kansas City Center
Sun 06:30:00 PM 37.8998 -93.3121 41° Northeast  Level FlightAware Approximate
Sun 06:30:28 PM 37.9522 -93.2469 41° Northeast 425 489 39,000  Level Kansas City Center
Sun 06:31:30 PM 38.0378 -93.1475 42° Northeast 419 482 39,000  Level Kansas City Center
Sun 06:33:00 PM 38.1583 -93.0252 39° Northeast  Level FlightAware Approximate
Sun 06:33:33 PM 38.2281 -92.9292 39° Northeast 416 479 39,000  Level Kansas City Center
Sun 06:34:35 PM 38.3142 -92.8283 43° Northeast 417 480 39,000  Level Kansas City Center
Sun 06:36:39 PM 38.4883 -92.6242 43° Northeast 422 486 39,000  Level Kansas City Center
Sun 06:37:41 PM 38.5753 -92.5214 43° Northeast 423 487 39,000  Level Kansas City Center
Sun 06:38:43 PM 38.6619 -92.4183 43° Northeast 423 487 39,000  Level Kansas City Center
Sun 06:39:45 PM 38.7483 -92.3150 43° Northeast 421 484 39,000  Level Kansas City Center
Sun 06:40:46 PM 38.8361 -92.2103 43° Northeast 426 490 39,000  Level Kansas City Center
Sun 06:41:48 PM 38.9239 -92.1056 43° Northeast 428 493 39,000  Level Kansas City Center
Sun 06:42:50 PM 39.0294 -91.9797 43° Northeast 429 494 39,000  Level Kansas City Center
Sun 06:43:52 PM 39.1156 -91.8767 43° Northeast 424 488 39,000  Level Kansas City Center
Sun 06:44:54 PM 39.2006 -91.7739 43° Northeast 419 482 39,000 -97 Level Kansas City Center
Sun 06:45:56 PM 39.2792 -91.6814 42° Northeast 419 482 38,800 -629 Descending Kansas City Center
Sun 06:46:58 PM 39.3633 -91.5786 43° Northeast 419 482 37,700 -1,742 Descending Kansas City Center
Sun 06:48:00 PM 39.4636 -91.4567 43° Northeast 414 476 35,200 -2,293 Descending Kansas City Center
Sun 06:49:01 PM 39.5356 -91.3661 44° Northeast 411 473 33,000 -1,561 Descending Kansas City Center
Sun 06:50:03 PM 39.6278 -91.2542 43° Northeast 408 470 32,000 -484 Descending Kansas City Center
Sun 06:51:05 PM 39.7106 -91.1547 43° Northeast 407 468 32,000  Level Kansas City Center
Sun 06:52:07 PM 39.7972 -91.0456 44° Northeast 410 472 32,000 -97 Level Kansas City Center
Sun 06:53:09 PM 39.8744 -90.9483 44° Northeast 410 472 31,800 -488 Descending Kansas City Center
Sun 06:54:10 PM 39.9589 -90.8450 43° Northeast 414 476 31,000 -390 Descending Kansas City Center
Sun 06:55:12 PM 40.0567 -90.7183 45° Northeast 413 475 31,000  Level Kansas City Center
Sun 06:56:14 PM 40.1328 -90.6058 48° Northeast 413 475 31,000  Level Kansas City Center
Sun 06:56:34 PM 40.1478 -90.5822 50° Northeast 414 476 31,000  Level Chicago Center
Sun 06:58:18 PM 40.2861 -90.3800 48° Northeast 415 478 31,000 -48 Level Kansas City Center
Sun 06:58:38 PM 40.3156 -90.3333 50° Northeast 416 479 30,900 -659 Descending Chicago Center
Sun 06:59:40 PM 40.3797 -90.2028 57° Northeast 424 488 30,100 -871 Descending Chicago Center
Sun 07:00:42 PM 40.4469 -90.0714 56° Northeast 433 498 29,100 -968 Descending Chicago Center
Sun 07:01:44 PM 40.5214 -89.9247 56° Northeast 435 501 28,100 -968 Descending Chicago Center
Sun 07:02:46 PM 40.5875 -89.7922 57° Northeast 435 501 27,100 -968 Descending Chicago Center
Sun 07:03:48 PM 40.6567 -89.6606 55° Northeast 436 502 26,100 -1,984 Descending Chicago Center
Sun 07:04:50 PM 40.7372 -89.5439 48° Northeast 419 482 23,000 -3,264 Descending Chicago Center
Sun 07:05:53 PM 40.8142 -89.4297 48° Northeast 418 481 19,300 -2,880 Descending Chicago Center
Sun 07:06:55 PM 40.8892 -89.3178 48° Northeast 403 464 17,000 -1,113 Descending Chicago Center
Sun 07:07:57 PM 40.9736 -89.1919 48° Northeast 383 441 17,000  Level Chicago Center
Sun 07:08:59 PM 41.0406 -89.0925 48° Northeast 380 437 17,000 -919 Level Chicago Center
Sun 07:10:01 PM 41.1086 -88.9881 49° Northeast 375 432 15,100 -2,371 Descending Chicago Center
Sun 07:11:03 PM 41.1883 -88.8658 49° Northeast 366 421 12,100 -2,226 Descending Chicago Center
Sun 07:12:05 PM 41.2519 -88.7703 48° Northeast 349 402 10,500 -1,113 Descending Chicago Center
Sun 07:13:07 PM 41.3067 -88.6853 49° Northeast 307 353 9,800 -1,065 Descending Chicago Center
Sun 07:14:09 PM 41.3578 -88.6086 48° Northeast 281 323 8,300 -1,403 Descending Chicago Center
Sun 07:15:11 PM 41.4053 -88.5344 49° Northeast 270 311 6,900 -1,113 Descending Chicago Center
Sun 07:16:13 PM 41.4431 -88.4589 56° Northeast 250 288 6,000 -726 Descending Chicago Center
Sun 07:17:15 PM 41.4778 -88.3567 66° East 250 288 5,400 -484 Descending Chicago Center
Sun 07:18:17 PM 41.5069 -88.2714 65° Northeast 251 289 5,000 -194 Descending Chicago Center
Sun 07:19:19 PM 41.5364 -88.1875 65° Northeast 249 287 5,000  Level Chicago Center
Sun 07:20:21 PM 41.5664 -88.1031 65° Northeast 250 288 5,000  Level Chicago Center
Sun 07:21:24 PM 41.5950 -88.0169 66° East 252 290 5,000 -192 Level Chicago Center
Sun 07:22:26 PM 41.6297 -87.9483 56° Northeast 239 275 4,600 -677 Descending Chicago Center
Sun 07:23:28 PM 41.6742 -87.8914 44° Northeast 227 261 3,600 -1,214 Descending Chicago Center
Sun 07:23:50 PM 41.7000 -87.8667 36° Northeast 213 245 2,900 -1,244 Descending Chicago TRACON
Sun 07:24:50 PM 41.7333 -87.8167 48° Northeast 170 196 1,900 -842 Descending Chicago TRACON
Sun 07:25:44 PM 41.7667 -87.7833 37° Northeast 124 143 1,300 -667 Descending Chicago TRACON
Sun 07:28:00 PM 41.7833 -87.7500 North  Level FlightAware Approximate

Login

Don't have an account? Register now (free) for customized features, flight alerts, and more!